TimeCDT,TemperatureF,Dew PointF,Humidity,Sea Level PressureIn,VisibilityMPH,Wind Direction,Wind SpeedMPH,Gust SpeedMPH,PrecipitationIn,Events,Conditions,WindDirDegrees,DateUTC
12:56 AM,66.0,60.1,81,29.69,10.0,Calm,Calm,-,N/A,,Overcast,0,2012-10-02 05:56:00
1:56 AM,64.9,61.0,87,29.70,10.0,Calm,Calm,-,N/A,,Overcast,0,2012-10-02 06:56:00
2:56 AM,64.0,61.0,90,29.70,10.0,Calm,Calm,-,N/A,,Mostly Cloudy,0,2012-10-02 07:56:00
3:24 AM,64.4,60.8,88,29.74,10.0,Calm,Calm,-,N/A,,Overcast,0,2012-10-02 08:24:00
3:56 AM,66.9,61.0,81,29.70,10.0,Calm,Calm,-,N/A,,Overcast,0,2012-10-02 08:56:00
4:09 AM,64.4,60.8,88,29.75,10.0,Calm,Calm,-,N/A,,Mostly Cloudy,0,2012-10-02 09:09:00
4:56 AM,63.0,61.0,93,29.72,10.0,Calm,Calm,-,N/A,,Scattered Clouds,0,2012-10-02 09:56:00
5:56 AM,64.0,62.1,93,29.74,10.0,South,3.5,-,N/A,,Overcast,170,2012-10-02 10:56:00
6:56 AM,64.0,61.0,90,29.76,10.0,Calm,Calm,-,N/A,,Overcast,0,2012-10-02 11:56:00
7:54 AM,66.2,60.8,83,29.83,10.0,WNW,4.6,-,N/A,,Partly Cloudy,290,2012-10-02 12:54:00
7:56 AM,66.0,61.0,84,29.79,10.0,WNW,4.6,-,N/A,,Partly Cloudy,300,2012-10-02 12:56:00
8:12 AM,64.4,60.8,88,29.83,10.0,Variable,5.8,-,N/A,,Mostly Cloudy,0,2012-10-02 13:12:00
8:42 AM,66.2,60.8,83,29.85,10.0,Variable,4.6,-,N/A,,Partly Cloudy,0,2012-10-02 13:42:00
8:56 AM,68.0,60.1,76,29.81,10.0,NW,9.2,-,N/A,,Partly Cloudy,310,2012-10-02 13:56:00
9:21 AM,69.8,60.8,73,29.85,10.0,WNW,5.8,-,N/A,,Mostly Cloudy,290,2012-10-02 14:21:00
9:56 AM,69.1,61.0,75,29.83,10.0,WNW,5.8,-,N/A,,Overcast,300,2012-10-02 14:56:00
10:44 AM,69.8,60.8,73,29.88,10.0,Variable,4.6,-,N/A,,Overcast,0,2012-10-02 15:44:00
10:56 AM,70.0,61.0,73,29.84,10.0,Variable,4.6,-,N/A,,Overcast,0,2012-10-02 15:56:00
11:43 AM,69.8,60.8,73,29.88,10.0,West,8.1,-,N/A,,Overcast,280,2012-10-02 16:43:00
11:56 AM,73.0,61.0,66,29.84,10.0,Variable,5.8,-,N/A,,Mostly Cloudy,0,2012-10-02 16:56:00
12:56 PM,75.0,60.1,60,29.83,10.0,NW,4.6,-,N/A,,Scattered Clouds,310,2012-10-02 17:56:00
1:56 PM,77.0,57.9,52,29.83,10.0,Calm,Calm,-,N/A,,Mostly Cloudy,0,2012-10-02 18:56:00
2:56 PM,79.0,59.0,50,29.84,10.0,NNW,10.4,-,N/A,,Mostly Cloudy,330,2012-10-02 19:56:00
3:56 PM,78.1,57.9,50,29.84,10.0,NW,9.2,-,N/A,,Mostly Cloudy,320,2012-10-02 20:56:00
4:56 PM,75.9,57.9,54,29.84,10.0,NW,5.8,-,N/A,,Partly Cloudy,310,2012-10-02 21:56:00
5:56 PM,73.0,59.0,61,29.86,10.0,NNW,3.5,-,N/A,,Clear,330,2012-10-02 22:56:00
6:56 PM,69.1,59.0,70,29.87,10.0,NNW,3.5,-,N/A,,Clear,340,2012-10-02 23:56:00
7:56 PM,64.0,60.1,87,29.90,10.0,NNW,3.5,-,N/A,,Clear,340,2012-10-03 00:56:00
8:56 PM,66.0,57.9,75,29.93,10.0,NNE,6.9,-,N/A,,Clear,20,2012-10-03 01:56:00
9:56 PM,64.9,59.0,81,29.96,10.0,NNE,6.9,-,N/A,,Clear,30,2012-10-03 02:56:00
10:56 PM,64.0,57.9,80,29.97,10.0,NNE,5.8,-,N/A,,Clear,30,2012-10-03 03:56:00
11:56 PM,63.0,57.9,84,29.98,10.0,NE,3.5,-,N/A,,Partly Cloudy,50,2012-10-03 04:56:00